CTV422 WIII-WALS
Flight info
| Callsign | CTV422 |
|---|---|
| Flight time | 1h 48m |
| Altitude | 35000 |
| Route | EGUKO T9 AGTAK |
| Aircraft | A320/M-SDE3FGHIRWY/LB1 |
Departure
| Time | 2026-04-17 04:09 |
|---|---|
| Airport | Soekarno-Hatta International Airport (WIII) |
Arrival
| Time | 2026-04-17 05:58 |
|---|---|
| Airport | Aji Pangeran Tumenggung Pranoto International Airport (WALS) |
| Time | Latitude | Longitude | Altitude | Speed | Heading |
|---|---|---|---|---|---|
| 2026-04-17 03:47 | -6.13176 | 106.65135 | 0 ft | 0 kts | 73° |
| 2026-04-17 03:56 | -6.13176 | 106.65133 | 0 ft | 2 kts | 73° |
| 2026-04-17 03:57 | -6.13184 | 106.65108 | 38 ft | 4 kts | 73° |
| 2026-04-17 03:57 | -6.13190 | 106.65083 | 38 ft | 4 kts | 102° |
| 2026-04-17 03:57 | -6.13178 | 106.65066 | 35 ft | 1 kts | 156° |
| 2026-04-17 03:57 | -6.13166 | 106.65061 | 38 ft | 0 kts | 156° |
| 2026-04-17 04:00 | -6.13192 | 106.65073 | 38 ft | 7 kts | 156° |
| 2026-04-17 04:01 | -6.13232 | 106.65091 | 38 ft | 6 kts | 153° |
| 2026-04-17 04:01 | -6.13267 | 106.65115 | 37 ft | 5 kts | 136° |
| 2026-04-17 04:01 | -6.13294 | 106.65151 | 38 ft | 8 kts | 125° |
| 2026-04-17 04:01 | -6.13328 | 106.65196 | 38 ft | 7 kts | 135° |
| 2026-04-17 04:02 | -6.13374 | 106.65219 | 38 ft | 8 kts | 159° |
| 2026-04-17 04:02 | -6.13426 | 106.65238 | 37 ft | 10 kts | 159° |
| 2026-04-17 04:02 | -6.13495 | 106.65265 | 38 ft | 10 kts | 159° |
| 2026-04-17 04:02 | -6.13555 | 106.65288 | 38 ft | 10 kts | 159° |
| 2026-04-17 04:03 | -6.13623 | 106.65316 | 39 ft | 9 kts | 158° |
| 2026-04-17 04:03 | -6.13676 | 106.65309 | 39 ft | 8 kts | 218° |
| 2026-04-17 04:03 | -6.13704 | 106.65257 | 37 ft | 11 kts | 248° |
| 2026-04-17 04:03 | -6.13734 | 106.65181 | 39 ft | 12 kts | 248° |
| 2026-04-17 04:04 | -6.13773 | 106.65084 | 39 ft | 18 kts | 248° |
| 2026-04-17 04:04 | -6.13822 | 106.64960 | 38 ft | 20 kts | 248° |
| 2026-04-17 04:04 | -6.13875 | 106.64827 | 37 ft | 21 kts | 248° |
| 2026-04-17 04:04 | -6.13932 | 106.64686 | 39 ft | 22 kts | 248° |
| 2026-04-17 04:05 | -6.13992 | 106.64537 | 37 ft | 24 kts | 248° |
| 2026-04-17 04:05 | -6.14045 | 106.64402 | 37 ft | 19 kts | 248° |
| 2026-04-17 04:05 | -6.14084 | 106.64319 | 38 ft | 8 kts | 228° |
| 2026-04-17 04:05 | -6.14115 | 106.64302 | 39 ft | 0 kts | 197° |
| 2026-04-17 04:07 | -6.14116 | 106.64302 | 39 ft | 1 kts | 197° |
| 2026-04-17 04:08 | -6.14147 | 106.64300 | 40 ft | 7 kts | 174° |
| 2026-04-17 04:08 | -6.14195 | 106.64338 | 41 ft | 11 kts | 121° |
| 2026-04-17 04:08 | -6.14221 | 106.64400 | 38 ft | 9 kts | 109° |
| 2026-04-17 04:08 | -6.14209 | 106.64476 | 40 ft | 14 kts | 67° |
| 2026-04-17 04:09 | -6.14111 | 106.64718 | 37 ft | 71 kts | 68° |
| 2026-04-17 04:09 | -6.13851 | 106.65372 | 39 ft | 129 kts | 68° |
| 2026-04-17 04:09 | -6.13455 | 106.66366 | 45 ft | 175 kts | 68° |
| 2026-04-17 04:09 | -6.13015 | 106.67497 | 672 ft | 173 kts | 68° |
| 2026-04-17 04:10 | -6.12573 | 106.68624 | 1346 ft | 176 kts | 66° |
| 2026-04-17 04:10 | -6.12083 | 106.69826 | 1708 ft | 195 kts | 67° |
| 2026-04-17 04:10 | -6.11558 | 106.71148 | 2145 ft | 213 kts | 68° |
| 2026-04-17 04:10 | -6.10975 | 106.72613 | 2557 ft | 238 kts | 68° |
| 2026-04-17 04:11 | -6.10546 | 106.74298 | 2999 ft | 260 kts | 88° |
| 2026-04-17 04:11 | -6.10517 | 106.76141 | 3809 ft | 267 kts | 88° |
| 2026-04-17 04:11 | -6.10479 | 106.78019 | 4653 ft | 271 kts | 89° |
| 2026-04-17 04:11 | -6.10433 | 106.79928 | 5453 ft | 275 kts | 89° |
| 2026-04-17 04:12 | -6.10382 | 106.81860 | 6260 ft | 278 kts | 89° |
| 2026-04-17 04:12 | -6.10324 | 106.83783 | 7029 ft | 281 kts | 89° |
| 2026-04-17 04:12 | -6.10266 | 106.85759 | 7784 ft | 285 kts | 89° |
| 2026-04-17 04:12 | -6.10212 | 106.87760 | 8517 ft | 289 kts | 89° |
| 2026-04-17 04:13 | -6.10161 | 106.89783 | 9245 ft | 293 kts | 90° |
| 2026-04-17 04:13 | -6.10111 | 106.91843 | 9968 ft | 297 kts | 90° |
| 2026-04-17 04:13 | -6.10060 | 106.93966 | 10408 ft | 314 kts | 90° |
| 2026-04-17 04:13 | -6.10006 | 106.96239 | 10605 ft | 336 kts | 90° |
| 2026-04-17 04:14 | -6.09946 | 106.98630 | 11093 ft | 347 kts | 89° |
| 2026-04-17 04:14 | -6.09880 | 107.01063 | 11755 ft | 350 kts | 89° |
| 2026-04-17 04:14 | -6.09815 | 107.03523 | 12434 ft | 353 kts | 89° |
| 2026-04-17 04:14 | -6.09769 | 107.05998 | 13097 ft | 356 kts | 90° |
| 2026-04-17 04:15 | -6.09760 | 107.08493 | 13743 ft | 358 kts | 91° |
| 2026-04-17 04:15 | -6.09772 | 107.11005 | 14371 ft | 361 kts | 91° |
| 2026-04-17 04:15 | -6.09776 | 107.13495 | 14953 ft | 364 kts | 88° |
| 2026-04-17 04:15 | -6.09402 | 107.16018 | 15513 ft | 367 kts | 75° |
| 2026-04-17 04:16 | -6.08439 | 107.18403 | 16088 ft | 371 kts | 61° |
| 2026-04-17 04:16 | -6.06927 | 107.20515 | 16652 ft | 374 kts | 47° |
| 2026-04-17 04:16 | -6.05022 | 107.22313 | 17197 ft | 377 kts | 43° |
| 2026-04-17 04:16 | -6.03071 | 107.24085 | 17735 ft | 380 kts | 43° |
| 2026-04-17 04:17 | -6.01109 | 107.25879 | 18264 ft | 382 kts | 43° |
| 2026-04-17 04:17 | -5.99140 | 107.27685 | 18782 ft | 385 kts | 43° |
| 2026-04-17 04:17 | -5.97160 | 107.29504 | 19293 ft | 387 kts | 43° |
| 2026-04-17 04:17 | -5.95166 | 107.31339 | 19799 ft | 390 kts | 43° |
| 2026-04-17 04:18 | -5.93164 | 107.33188 | 20285 ft | 392 kts | 44° |
| 2026-04-17 04:18 | -5.91149 | 107.35048 | 20767 ft | 395 kts | 44° |
| 2026-04-17 04:18 | -5.89116 | 107.36918 | 21236 ft | 397 kts | 44° |
| 2026-04-17 04:18 | -5.87070 | 107.38795 | 21698 ft | 400 kts | 44° |
| 2026-04-17 04:19 | -5.85036 | 107.40657 | 22149 ft | 402 kts | 44° |
| 2026-04-17 04:19 | -5.82961 | 107.42556 | 22593 ft | 405 kts | 44° |
| 2026-04-17 04:19 | -5.80877 | 107.44465 | 23018 ft | 407 kts | 44° |
| 2026-04-17 04:19 | -5.78778 | 107.46387 | 23432 ft | 410 kts | 44° |
| 2026-04-17 04:20 | -5.76666 | 107.48323 | 23833 ft | 412 kts | 44° |
| 2026-04-17 04:20 | -5.74544 | 107.50269 | 24218 ft | 414 kts | 44° |
| 2026-04-17 04:20 | -5.72407 | 107.52225 | 24602 ft | 416 kts | 44° |
| 2026-04-17 04:20 | -5.70262 | 107.54188 | 24971 ft | 419 kts | 44° |
| 2026-04-17 04:21 | -5.68102 | 107.56164 | 25314 ft | 421 kts | 44° |
| 2026-04-17 04:21 | -5.65935 | 107.58150 | 25645 ft | 424 kts | 44° |
| 2026-04-17 04:21 | -5.63753 | 107.60151 | 25966 ft | 426 kts | 44° |
| 2026-04-17 04:21 | -5.61559 | 107.62165 | 26272 ft | 429 kts | 44° |
| 2026-04-17 04:22 | -5.59380 | 107.64162 | 26567 ft | 431 kts | 44° |
| 2026-04-17 04:22 | -5.57160 | 107.66189 | 26859 ft | 433 kts | 44° |
| 2026-04-17 04:22 | -5.54924 | 107.68229 | 27140 ft | 435 kts | 44° |
| 2026-04-17 04:22 | -5.52683 | 107.70278 | 27410 ft | 438 kts | 44° |
| 2026-04-17 04:23 | -5.50426 | 107.72344 | 27680 ft | 440 kts | 44° |
| 2026-04-17 04:23 | -5.48163 | 107.74417 | 27945 ft | 442 kts | 44° |
| 2026-04-17 04:23 | -5.45889 | 107.76501 | 28206 ft | 444 kts | 44° |
| 2026-04-17 04:23 | -5.43648 | 107.78641 | 28454 ft | 445 kts | 49° |
| 2026-04-17 04:24 | -5.41727 | 107.81069 | 28692 ft | 446 kts | 56° |
| 2026-04-17 04:24 | -5.39944 | 107.83625 | 28932 ft | 448 kts | 56° |
| 2026-04-17 04:24 | -5.38156 | 107.86187 | 29168 ft | 449 kts | 56° |
| 2026-04-17 04:24 | -5.36355 | 107.88761 | 29401 ft | 451 kts | 56° |
| 2026-04-17 04:25 | -5.34546 | 107.91341 | 29621 ft | 453 kts | 56° |
| 2026-04-17 04:25 | -5.32728 | 107.93932 | 29837 ft | 455 kts | 56° |
| 2026-04-17 04:25 | -5.30924 | 107.96498 | 30048 ft | 457 kts | 56° |
| 2026-04-17 04:25 | -5.29094 | 107.99105 | 30245 ft | 458 kts | 56° |
| 2026-04-17 04:26 | -5.27257 | 108.01722 | 30461 ft | 460 kts | 56° |
| 2026-04-17 04:26 | -5.25417 | 108.04352 | 30668 ft | 461 kts | 56° |
| 2026-04-17 04:26 | -5.23571 | 108.06989 | 30864 ft | 462 kts | 56° |
| 2026-04-17 04:26 | -5.21720 | 108.09627 | 31060 ft | 463 kts | 56° |
| 2026-04-17 04:27 | -5.19865 | 108.12272 | 31308 ft | 463 kts | 56° |
| 2026-04-17 04:27 | -5.18017 | 108.14908 | 31590 ft | 462 kts | 56° |
| 2026-04-17 04:27 | -5.16173 | 108.17536 | 31868 ft | 461 kts | 56° |
| 2026-04-17 04:27 | -5.14327 | 108.20161 | 32134 ft | 460 kts | 56° |
| 2026-04-17 04:28 | -5.13107 | 108.21893 | 32309 ft | 459 kts | 56° |
| 2026-04-17 04:28 | -5.11268 | 108.24507 | 32581 ft | 458 kts | 56° |
| 2026-04-17 04:28 | -5.09434 | 108.27120 | 32846 ft | 457 kts | 56° |
| 2026-04-17 04:28 | -5.07611 | 108.29724 | 33111 ft | 456 kts | 56° |
| 2026-04-17 04:29 | -5.05790 | 108.32327 | 33375 ft | 455 kts | 56° |
| 2026-04-17 04:29 | -5.03379 | 108.35762 | 33722 ft | 454 kts | 56° |
| 2026-04-17 04:29 | -5.01559 | 108.38349 | 33977 ft | 453 kts | 56° |
| 2026-04-17 04:29 | -5.00332 | 108.40095 | 34144 ft | 452 kts | 56° |
| 2026-04-17 04:30 | -4.98522 | 108.42668 | 34370 ft | 452 kts | 56° |
| 2026-04-17 04:30 | -4.96737 | 108.45212 | 34588 ft | 451 kts | 56° |
| 2026-04-17 04:30 | -4.94931 | 108.47785 | 34793 ft | 451 kts | 57° |
| 2026-04-17 04:30 | -4.93127 | 108.50352 | 34901 ft | 449 kts | 56° |
| 2026-04-17 04:31 | -4.91336 | 108.52899 | 34921 ft | 445 kts | 57° |
| 2026-04-17 04:31 | -4.87787 | 108.57955 | 34920 ft | 443 kts | 57° |
| 2026-04-17 04:32 | -4.84239 | 108.63001 | 34920 ft | 442 kts | 56° |
| 2026-04-17 04:32 | -4.80693 | 108.68038 | 34920 ft | 442 kts | 57° |
| 2026-04-17 04:33 | -4.77150 | 108.73081 | 34921 ft | 442 kts | 57° |
| 2026-04-17 04:33 | -4.73602 | 108.78123 | 34922 ft | 442 kts | 57° |
| 2026-04-17 04:34 | -4.69059 | 108.86067 | 34924 ft | 440 kts | 66° |
| 2026-04-17 04:34 | -4.66436 | 108.91606 | 34926 ft | 440 kts | 66° |
| 2026-04-17 04:35 | -4.63799 | 108.97145 | 34923 ft | 440 kts | 66° |
| 2026-04-17 04:35 | -4.61167 | 109.02678 | 34922 ft | 440 kts | 66° |
| 2026-04-17 04:36 | -4.58525 | 109.08237 | 34921 ft | 446 kts | 66° |
| 2026-04-17 04:36 | -4.55832 | 109.13896 | 34920 ft | 453 kts | 66° |
| 2026-04-17 04:37 | -4.53108 | 109.19594 | 34921 ft | 454 kts | 66° |
| 2026-04-17 04:37 | -4.50384 | 109.25308 | 34920 ft | 454 kts | 66° |
| 2026-04-17 04:38 | -4.47668 | 109.31019 | 34921 ft | 454 kts | 66° |
| 2026-04-17 04:38 | -4.44971 | 109.36698 | 34923 ft | 454 kts | 66° |
| 2026-04-17 04:39 | -4.42248 | 109.42413 | 34924 ft | 454 kts | 66° |
| 2026-04-17 04:39 | -4.39514 | 109.48125 | 34926 ft | 455 kts | 66° |
| 2026-04-17 04:40 | -4.36788 | 109.53844 | 34928 ft | 455 kts | 66° |
| 2026-04-17 04:40 | -4.34069 | 109.59565 | 34927 ft | 455 kts | 66° |
| 2026-04-17 04:41 | -4.31347 | 109.65277 | 34921 ft | 454 kts | 66° |
| 2026-04-17 04:41 | -4.28619 | 109.70977 | 34918 ft | 454 kts | 66° |
| 2026-04-17 04:42 | -4.25913 | 109.76638 | 34915 ft | 453 kts | 66° |
| 2026-04-17 04:42 | -4.23197 | 109.82334 | 34913 ft | 453 kts | 66° |
| 2026-04-17 04:43 | -4.20482 | 109.88027 | 34911 ft | 453 kts | 66° |
| 2026-04-17 04:43 | -4.17767 | 109.93715 | 34909 ft | 452 kts | 66° |
| 2026-04-17 04:44 | -4.15053 | 109.99400 | 34907 ft | 452 kts | 66° |
| 2026-04-17 04:44 | -4.12339 | 110.05083 | 34905 ft | 452 kts | 66° |
| 2026-04-17 04:45 | -4.09627 | 110.10763 | 34904 ft | 452 kts | 66° |
| 2026-04-17 04:45 | -4.06911 | 110.16436 | 34905 ft | 451 kts | 66° |
| 2026-04-17 04:46 | -4.04225 | 110.22065 | 34904 ft | 451 kts | 66° |
| 2026-04-17 04:46 | -4.01522 | 110.27727 | 34901 ft | 450 kts | 66° |
| 2026-04-17 04:47 | -3.98816 | 110.33375 | 34897 ft | 450 kts | 66° |
| 2026-04-17 04:47 | -3.96107 | 110.39023 | 34893 ft | 450 kts | 66° |
| 2026-04-17 04:48 | -3.93405 | 110.44667 | 34891 ft | 450 kts | 66° |
| 2026-04-17 04:48 | -3.90705 | 110.50319 | 34891 ft | 450 kts | 66° |
| 2026-04-17 04:49 | -3.88001 | 110.55968 | 34891 ft | 450 kts | 66° |
| 2026-04-17 04:49 | -3.85290 | 110.61615 | 34892 ft | 450 kts | 66° |
| 2026-04-17 04:50 | -3.82605 | 110.67230 | 34892 ft | 450 kts | 66° |
| 2026-04-17 04:50 | -3.79903 | 110.72882 | 34890 ft | 450 kts | 65° |
| 2026-04-17 04:51 | -3.77192 | 110.78525 | 34890 ft | 449 kts | 65° |
| 2026-04-17 04:51 | -3.74489 | 110.84168 | 34890 ft | 449 kts | 65° |
| 2026-04-17 04:52 | -3.71792 | 110.89811 | 34891 ft | 449 kts | 65° |
| 2026-04-17 04:52 | -3.69096 | 110.95452 | 34893 ft | 450 kts | 65° |
| 2026-04-17 04:53 | -3.66388 | 111.01099 | 34895 ft | 450 kts | 65° |
| 2026-04-17 04:55 | -3.55571 | 111.23622 | 34891 ft | 449 kts | 65° |
| 2026-04-17 04:55 | -3.52867 | 111.29258 | 34885 ft | 449 kts | 66° |
| 2026-04-17 04:56 | -3.50169 | 111.34892 | 34880 ft | 449 kts | 66° |
| 2026-04-17 04:56 | -3.47458 | 111.40537 | 34882 ft | 450 kts | 66° |
| 2026-04-17 04:57 | -3.44749 | 111.46188 | 34882 ft | 450 kts | 66° |
| 2026-04-17 04:57 | -3.42048 | 111.51796 | 34884 ft | 451 kts | 65° |
| 2026-04-17 04:58 | -3.39328 | 111.57449 | 34887 ft | 451 kts | 66° |
| 2026-04-17 04:58 | -3.36611 | 111.63105 | 34891 ft | 451 kts | 65° |
| 2026-04-17 04:59 | -3.33890 | 111.68764 | 34895 ft | 451 kts | 66° |
| 2026-04-17 04:59 | -3.31173 | 111.74425 | 34898 ft | 451 kts | 66° |
| 2026-04-17 05:00 | -3.28455 | 111.80084 | 34900 ft | 451 kts | 66° |
| 2026-04-17 05:00 | -3.25730 | 111.85752 | 34901 ft | 451 kts | 66° |
| 2026-04-17 05:01 | -3.23014 | 111.91410 | 34900 ft | 451 kts | 66° |
| 2026-04-17 05:01 | -3.20309 | 111.97022 | 34898 ft | 451 kts | 65° |
| 2026-04-17 05:02 | -3.17588 | 112.02672 | 34896 ft | 451 kts | 66° |
| 2026-04-17 05:02 | -3.14873 | 112.08327 | 34896 ft | 451 kts | 66° |
| 2026-04-17 05:03 | -3.12153 | 112.13983 | 34897 ft | 451 kts | 65° |
| 2026-04-17 05:03 | -3.09428 | 112.19642 | 34899 ft | 451 kts | 66° |
| 2026-04-17 05:04 | -3.06706 | 112.25301 | 34900 ft | 451 kts | 65° |
| 2026-04-17 05:04 | -3.03987 | 112.30960 | 34900 ft | 451 kts | 66° |
| 2026-04-17 05:05 | -3.01528 | 112.36728 | 34902 ft | 451 kts | 70° |
| 2026-04-17 05:05 | -2.99325 | 112.42561 | 34890 ft | 452 kts | 70° |
| 2026-04-17 05:06 | -2.97096 | 112.48443 | 34884 ft | 452 kts | 70° |
| 2026-04-17 05:06 | -2.94801 | 112.54299 | 34874 ft | 452 kts | 69° |
| 2026-04-17 05:07 | -2.92470 | 112.60149 | 34873 ft | 453 kts | 69° |
| 2026-04-17 05:07 | -2.90138 | 112.65997 | 34871 ft | 453 kts | 69° |
| 2026-04-17 05:08 | -2.87821 | 112.71855 | 34873 ft | 453 kts | 69° |
| 2026-04-17 05:08 | -2.85509 | 112.77711 | 34875 ft | 453 kts | 69° |
| 2026-04-17 05:09 | -2.83192 | 112.83574 | 34873 ft | 453 kts | 69° |
| 2026-04-17 05:09 | -2.80867 | 112.89435 | 34879 ft | 453 kts | 69° |
| 2026-04-17 05:10 | -2.78544 | 112.95299 | 34879 ft | 454 kts | 69° |
| 2026-04-17 05:10 | -2.76237 | 113.01130 | 34878 ft | 454 kts | 70° |
| 2026-04-17 05:11 | -2.73922 | 113.06998 | 34874 ft | 453 kts | 70° |
| 2026-04-17 05:11 | -2.71601 | 113.12862 | 34873 ft | 453 kts | 70° |
| 2026-04-17 05:12 | -2.69275 | 113.18725 | 34872 ft | 453 kts | 70° |
| 2026-04-17 05:12 | -2.66955 | 113.24590 | 34869 ft | 453 kts | 70° |
| 2026-04-17 05:13 | -2.64633 | 113.30456 | 34872 ft | 453 kts | 70° |
| 2026-04-17 05:13 | -2.62308 | 113.36314 | 34868 ft | 453 kts | 70° |
| 2026-04-17 05:14 | -2.59679 | 113.42037 | 34864 ft | 455 kts | 58° |
| 2026-04-17 05:14 | -2.56199 | 113.47328 | 34861 ft | 455 kts | 58° |
| 2026-04-17 05:15 | -2.52714 | 113.52609 | 34859 ft | 455 kts | 58° |
| 2026-04-17 05:15 | -2.49261 | 113.57864 | 34856 ft | 455 kts | 58° |
| 2026-04-17 05:16 | -2.45784 | 113.63163 | 34854 ft | 456 kts | 58° |
| 2026-04-17 05:16 | -2.42311 | 113.68462 | 34854 ft | 456 kts | 58° |
| 2026-04-17 05:17 | -2.38831 | 113.73763 | 34855 ft | 456 kts | 58° |
| 2026-04-17 05:17 | -2.35342 | 113.79061 | 34857 ft | 456 kts | 58° |
| 2026-04-17 05:18 | -2.31854 | 113.84361 | 34858 ft | 456 kts | 58° |
| 2026-04-17 05:18 | -2.28362 | 113.89665 | 34862 ft | 457 kts | 58° |
| 2026-04-17 05:19 | -2.24914 | 113.94993 | 34860 ft | 456 kts | 63° |
| 2026-04-17 05:19 | -2.22311 | 114.00745 | 34861 ft | 454 kts | 68° |
| 2026-04-17 05:20 | -2.19782 | 114.06531 | 34861 ft | 454 kts | 68° |
| 2026-04-17 05:20 | -2.17250 | 114.12271 | 34860 ft | 455 kts | 68° |
| 2026-04-17 05:21 | -2.14698 | 114.18060 | 34861 ft | 455 kts | 68° |
| 2026-04-17 05:21 | -2.12158 | 114.23857 | 34862 ft | 455 kts | 68° |
| 2026-04-17 05:22 | -2.09615 | 114.29656 | 34864 ft | 455 kts | 68° |
| 2026-04-17 05:22 | -2.07062 | 114.35453 | 34863 ft | 455 kts | 68° |
| 2026-04-17 05:23 | -2.04514 | 114.41252 | 34867 ft | 456 kts | 68° |
| 2026-04-17 05:23 | -2.01971 | 114.47055 | 34870 ft | 456 kts | 68° |
| 2026-04-17 05:24 | -1.99423 | 114.52855 | 34870 ft | 456 kts | 68° |
| 2026-04-17 05:24 | -1.96889 | 114.58612 | 34868 ft | 456 kts | 68° |
| 2026-04-17 05:25 | -1.94338 | 114.64413 | 34872 ft | 456 kts | 68° |
| 2026-04-17 05:25 | -1.91786 | 114.70228 | 34855 ft | 457 kts | 67° |
| 2026-04-17 05:26 | -1.89224 | 114.76057 | 34851 ft | 459 kts | 67° |
| 2026-04-17 05:26 | -1.86657 | 114.81894 | 34853 ft | 459 kts | 67° |
| 2026-04-17 05:27 | -1.84086 | 114.87749 | 34858 ft | 460 kts | 67° |
| 2026-04-17 05:27 | -1.81515 | 114.93606 | 34862 ft | 460 kts | 67° |
| 2026-04-17 05:28 | -1.78940 | 114.99464 | 34866 ft | 461 kts | 67° |
| 2026-04-17 05:28 | -1.76359 | 115.05328 | 34873 ft | 461 kts | 67° |
| 2026-04-17 05:29 | -1.73796 | 115.11158 | 34876 ft | 461 kts | 67° |
| 2026-04-17 05:29 | -1.71195 | 115.17070 | 34877 ft | 461 kts | 68° |
| 2026-04-17 05:30 | -1.68633 | 115.22901 | 34876 ft | 461 kts | 68° |
| 2026-04-17 05:30 | -1.66141 | 115.28804 | 34879 ft | 461 kts | 69° |
| 2026-04-17 05:31 | -1.63739 | 115.34747 | 34883 ft | 461 kts | 69° |
| 2026-04-17 05:31 | -1.61747 | 115.39689 | 34884 ft | 462 kts | 69° |
| 2026-04-17 05:32 | -1.59316 | 115.45632 | 34888 ft | 462 kts | 68° |
| 2026-04-17 05:32 | -1.56861 | 115.51568 | 34891 ft | 462 kts | 68° |
| 2026-04-17 05:33 | -1.54417 | 115.57512 | 34886 ft | 463 kts | 69° |
| 2026-04-17 05:33 | -1.51980 | 115.63457 | 34894 ft | 463 kts | 69° |
| 2026-04-17 05:34 | -1.49534 | 115.69417 | 34901 ft | 463 kts | 68° |
| 2026-04-17 05:34 | -1.47083 | 115.75366 | 34905 ft | 463 kts | 68° |
| 2026-04-17 05:35 | -1.44639 | 115.81307 | 34906 ft | 462 kts | 69° |
| 2026-04-17 05:35 | -1.42200 | 115.87251 | 34906 ft | 462 kts | 69° |
| 2026-04-17 05:36 | -1.39769 | 115.93183 | 34282 ft | 461 kts | 69° |
| 2026-04-17 05:36 | -1.38553 | 115.96148 | 33748 ft | 460 kts | 68° |
| 2026-04-17 05:36 | -1.37362 | 115.99045 | 33238 ft | 454 kts | 68° |
| 2026-04-17 05:37 | -1.36166 | 116.01950 | 32715 ft | 450 kts | 69° |
| 2026-04-17 05:37 | -1.34981 | 116.04824 | 32186 ft | 445 kts | 69° |
| 2026-04-17 05:37 | -1.33811 | 116.07668 | 31659 ft | 441 kts | 69° |
| 2026-04-17 05:37 | -1.32652 | 116.10489 | 31137 ft | 436 kts | 69° |
| 2026-04-17 05:38 | -1.31506 | 116.13281 | 30608 ft | 432 kts | 69° |
| 2026-04-17 05:38 | -1.30368 | 116.16049 | 30089 ft | 429 kts | 70° |
| 2026-04-17 05:38 | -1.29239 | 116.18788 | 29564 ft | 425 kts | 70° |
| 2026-04-17 05:38 | -1.28118 | 116.21509 | 29037 ft | 422 kts | 70° |
| 2026-04-17 05:39 | -1.27006 | 116.24212 | 28506 ft | 419 kts | 70° |
| 2026-04-17 05:39 | -1.25905 | 116.26897 | 27983 ft | 416 kts | 70° |
| 2026-04-17 05:39 | -1.24811 | 116.29564 | 27452 ft | 414 kts | 69° |
| 2026-04-17 05:39 | -1.23719 | 116.32218 | 26931 ft | 412 kts | 69° |
| 2026-04-17 05:40 | -1.22633 | 116.34857 | 26402 ft | 410 kts | 69° |
| 2026-04-17 05:40 | -1.21551 | 116.37485 | 25880 ft | 408 kts | 69° |
| 2026-04-17 05:40 | -1.20473 | 116.40102 | 25357 ft | 406 kts | 69° |
| 2026-04-17 05:40 | -1.19401 | 116.42709 | 24830 ft | 405 kts | 69° |
| 2026-04-17 05:41 | -1.18335 | 116.45306 | 24300 ft | 403 kts | 68° |
| 2026-04-17 05:41 | -1.17287 | 116.47856 | 23783 ft | 401 kts | 68° |
| 2026-04-17 05:41 | -1.17214 | 116.48032 | 23752 ft | 401 kts | 68° |
| 2026-04-17 05:41 | -1.16245 | 116.50433 | 23252 ft | 400 kts | 68° |
| 2026-04-17 05:42 | -1.15194 | 116.53002 | 22730 ft | 399 kts | 68° |
| 2026-04-17 05:42 | -1.14139 | 116.55558 | 22205 ft | 398 kts | 68° |
| 2026-04-17 05:42 | -1.13082 | 116.58108 | 21661 ft | 397 kts | 68° |
| 2026-04-17 05:42 | -1.12029 | 116.60653 | 21131 ft | 396 kts | 68° |
| 2026-04-17 05:43 | -1.10982 | 116.63190 | 20608 ft | 394 kts | 68° |
| 2026-04-17 05:43 | -1.09940 | 116.65724 | 20081 ft | 393 kts | 68° |
| 2026-04-17 05:43 | -1.08903 | 116.68248 | 19557 ft | 392 kts | 68° |
| 2026-04-17 05:43 | -1.07866 | 116.70767 | 19025 ft | 391 kts | 68° |
| 2026-04-17 05:44 | -1.06834 | 116.73278 | 18505 ft | 390 kts | 68° |
| 2026-04-17 05:44 | -1.05806 | 116.75780 | 17975 ft | 389 kts | 68° |
| 2026-04-17 05:44 | -1.04781 | 116.78279 | 17450 ft | 388 kts | 68° |
| 2026-04-17 05:44 | -1.03755 | 116.80771 | 16920 ft | 388 kts | 68° |
| 2026-04-17 05:45 | -1.02746 | 116.83228 | 16402 ft | 387 kts | 68° |
| 2026-04-17 05:45 | -1.01723 | 116.85713 | 15871 ft | 386 kts | 68° |
| 2026-04-17 05:45 | -1.00703 | 116.88187 | 15346 ft | 384 kts | 68° |
| 2026-04-17 05:45 | -0.99689 | 116.90649 | 14819 ft | 383 kts | 67° |
| 2026-04-17 05:46 | -0.98674 | 116.93106 | 14294 ft | 381 kts | 66° |
| 2026-04-17 05:46 | -0.97344 | 116.95369 | 13763 ft | 378 kts | 47° |
| 2026-04-17 05:46 | -0.95272 | 116.96927 | 13240 ft | 372 kts | 23° |
| 2026-04-17 05:46 | -0.92788 | 116.97517 | 12710 ft | 366 kts | 359° |
| 2026-04-17 05:47 | -0.90257 | 116.97395 | 12189 ft | 364 kts | 354° |
| 2026-04-17 05:47 | -0.87741 | 116.97214 | 11656 ft | 361 kts | 354° |
| 2026-04-17 05:47 | -0.85242 | 116.97028 | 11158 ft | 358 kts | 354° |
| 2026-04-17 05:47 | -0.82803 | 116.96848 | 10986 ft | 344 kts | 354° |
| 2026-04-17 05:48 | -0.80476 | 116.96682 | 11001 ft | 327 kts | 354° |
| 2026-04-17 05:48 | -0.78267 | 116.96529 | 11005 ft | 310 kts | 354° |
| 2026-04-17 05:48 | -0.76167 | 116.96384 | 11006 ft | 295 kts | 354° |
| 2026-04-17 05:48 | -0.74172 | 116.96249 | 11007 ft | 289 kts | 354° |
| 2026-04-17 05:49 | -0.72187 | 116.96114 | 10984 ft | 281 kts | 354° |
| 2026-04-17 05:49 | -0.70230 | 116.95981 | 10533 ft | 284 kts | 354° |
| 2026-04-17 05:49 | -0.68250 | 116.95844 | 10088 ft | 287 kts | 354° |
| 2026-04-17 05:49 | -0.66267 | 116.95706 | 9624 ft | 282 kts | 354° |
| 2026-04-17 05:50 | -0.64336 | 116.95573 | 9172 ft | 274 kts | 354° |
| 2026-04-17 05:50 | -0.62460 | 116.95444 | 8719 ft | 267 kts | 354° |
| 2026-04-17 05:50 | -0.60631 | 116.95319 | 8252 ft | 260 kts | 354° |
| 2026-04-17 05:50 | -0.58849 | 116.95196 | 7777 ft | 254 kts | 354° |
| 2026-04-17 05:51 | -0.57103 | 116.95075 | 7300 ft | 249 kts | 355° |
| 2026-04-17 05:51 | -0.55388 | 116.94971 | 6819 ft | 245 kts | 1° |
| 2026-04-17 05:51 | -0.53742 | 116.95340 | 6340 ft | 244 kts | 26° |
| 2026-04-17 05:51 | -0.52415 | 116.96378 | 5865 ft | 245 kts | 51° |
| 2026-04-17 05:52 | -0.51665 | 116.97904 | 5469 ft | 247 kts | 78° |
| 2026-04-17 05:52 | -0.51554 | 116.99586 | 5294 ft | 240 kts | 89° |
| 2026-04-17 05:52 | -0.51542 | 117.01238 | 5035 ft | 236 kts | 89° |
| 2026-04-17 05:52 | -0.51528 | 117.02875 | 4763 ft | 235 kts | 89° |
| 2026-04-17 05:53 | -0.51510 | 117.04500 | 4494 ft | 232 kts | 89° |
| 2026-04-17 05:53 | -0.51492 | 117.06084 | 4221 ft | 230 kts | 89° |
| 2026-04-17 05:53 | -0.51473 | 117.07673 | 3947 ft | 227 kts | 89° |
| 2026-04-17 05:53 | -0.51456 | 117.09245 | 3678 ft | 226 kts | 89° |
| 2026-04-17 05:54 | -0.51256 | 117.10786 | 3409 ft | 223 kts | 71° |
| 2026-04-17 05:54 | -0.50547 | 117.12141 | 3156 ft | 220 kts | 51° |
| 2026-04-17 05:54 | -0.49495 | 117.13205 | 3023 ft | 211 kts | 43° |
| 2026-04-17 05:54 | -0.48452 | 117.14207 | 2792 ft | 206 kts | 44° |
| 2026-04-17 05:55 | -0.47454 | 117.15179 | 2511 ft | 195 kts | 44° |
| 2026-04-17 05:55 | -0.46515 | 117.16096 | 2242 ft | 182 kts | 43° |
| 2026-04-17 05:55 | -0.45654 | 117.16939 | 2051 ft | 165 kts | 43° |
| 2026-04-17 05:55 | -0.44859 | 117.17716 | 1881 ft | 159 kts | 43° |
| 2026-04-17 05:56 | -0.44077 | 117.18478 | 1643 ft | 153 kts | 43° |
| 2026-04-17 05:56 | -0.43333 | 117.19202 | 1457 ft | 150 kts | 43° |
| 2026-04-17 05:56 | -0.42587 | 117.19927 | 1262 ft | 149 kts | 44° |
| 2026-04-17 05:56 | -0.41847 | 117.20647 | 1076 ft | 149 kts | 44° |
| 2026-04-17 05:57 | -0.41107 | 117.21366 | 885 ft | 148 kts | 44° |
| 2026-04-17 05:57 | -0.40373 | 117.22081 | 695 ft | 147 kts | 44° |
| 2026-04-17 05:57 | -0.39639 | 117.22792 | 489 ft | 146 kts | 45° |
| 2026-04-17 05:57 | -0.38914 | 117.23502 | 330 ft | 146 kts | 45° |
| 2026-04-17 05:58 | -0.38194 | 117.24209 | 143 ft | 145 kts | 45° |
| 2026-04-17 05:58 | -0.37512 | 117.24868 | 90 ft | 122 kts | 45° |
| 2026-04-17 05:58 | -0.37091 | 117.25279 | 84 ft | 41 kts | 44° |
| 2026-04-17 05:59 | -0.36781 | 117.25580 | 85 ft | 16 kts | 45° |
| 2026-04-17 05:59 | -0.36720 | 117.25645 | 85 ft | 8 kts | 62° |
| 2026-04-17 05:59 | -0.36728 | 117.25692 | 87 ft | 7 kts | 128° |
| 2026-04-17 05:59 | -0.36761 | 117.25718 | 89 ft | 6 kts | 152° |
| 2026-04-17 06:00 | -0.36812 | 117.25728 | 87 ft | 10 kts | 172° |
| 2026-04-17 06:00 | -0.36865 | 117.25719 | 88 ft | 7 kts | 217° |
| 2026-04-17 06:00 | -0.36898 | 117.25688 | 87 ft | 6 kts | 224° |
| 2026-04-17 06:00 | -0.36925 | 117.25661 | 87 ft | 5 kts | 224° |
| 2026-04-17 06:01 | -0.36948 | 117.25638 | 88 ft | 4 kts | 224° |
| 2026-04-17 06:01 | -0.36974 | 117.25614 | 87 ft | 5 kts | 223° |
| 2026-04-17 06:01 | -0.36996 | 117.25617 | 84 ft | 4 kts | 144° |
| 2026-04-17 06:01 | -0.37018 | 117.25641 | 85 ft | 3 kts | 133° |
| 2026-04-17 06:02 | -0.37034 | 117.25657 | 86 ft | 3 kts | 134° |
| 2026-04-17 06:02 | -0.37041 | 117.25665 | 87 ft | 0 kts | 134° |